Time;durP1;ratioP1;P1;durP2;ratioP2;P2;SDS_P1;SDS_P2;PMS_P1;PMS_P2;Temp;Humidity;BMP_temperature;BMP_pressure;BME280_temperature;BME280_humidity;BME280_pressure;Samples;Min_cycle;Max_cycle;Signal;HPM_P1;HPM_P2
2023/08/16 00:00:07;;;;;;;;;;;;;;;;;;5066121;28;19928;-85
2023/08/16 00:02:32;;;;;;;;;;;;;;;;;;5048443;28;19935;-86
2023/08/16 00:04:58;;;;;;;;;;;;;;;;;;5064966;28;19936;-85
2023/08/16 00:07:24;;;;;;;;;;;;;;;;;;5065513;28;19978;-84
2023/08/16 00:09:51;;;;;;;;;;;;;;;;;;5049059;28;19928;-86
2023/08/16 00:12:17;;;;;;;;;;;;;;;;;;5054805;28;19925;-84
2023/08/16 00:14:43;;;;;;;;;;;;;;;;;;5063401;28;19958;-84
2023/08/16 00:17:09;;;;;;;;;;;;;;;;;;5064575;28;19928;-85
2023/08/16 00:19:34;;;;;;;;;;;;;;;;;;5065278;28;19925;-85
2023/08/16 00:22:00;;;;;;;;;;;;;;;;;;5064063;28;20175;-85
2023/08/16 00:24:26;;;;;;;;;;;;;;;;;;5062633;28;19928;-84
2023/08/16 00:26:52;;;;;;;;;;;;;;;;;;5064899;28;19936;-84
2023/08/16 00:29:18;;;;;;;;;;;;;;;;;;5061153;28;19928;-85
2023/08/16 00:31:44;;;;;;;;;;;;;;;;;;5043112;28;19928;-85
2023/08/16 00:34:10;;;;;;;;;;;;;;;;;;5061725;28;19983;-85
2023/08/16 00:36:36;;;;;;;;;;;;;;;;;;5048094;28;20398;-85
2023/08/16 00:39:03;;;;;;;;;;;;;;;;;;5047242;28;19924;-85
2023/08/16 00:41:29;;;;;;;;;;;;;;;;;;5048643;28;19973;-85
2023/08/16 00:43:55;;;;;;;;;;;;;;;;;;5062163;28;19932;-85
2023/08/16 00:46:21;;;;;;;;;;;;;;;;;;5046429;28;20482;-85
2023/08/16 00:48:47;;;;;;;;;;;;;;;;;;5046521;28;19924;-85
2023/08/16 00:51:13;;;;;;;;;;;;;;;;;;5065375;28;20285;-85
2023/08/16 00:53:38;;;;;;;;;;;;;;;;;;5064458;28;20297;-85
2023/08/16 00:56:04;;;;;;;;;;;;;;;;;;5063902;28;19932;-85
2023/08/16 00:58:30;;;;;;;;;;;;;;;;;;5056698;28;19967;-85
2023/08/16 01:00:56;;;;;;;;;;;;;;;;;;5065643;28;20534;-85
2023/08/16 01:03:22;;;;;;;;;;;;;;;;;;5064922;28;19925;-85
2023/08/16 01:05:48;;;;;;;;;;;;;;;;;;5048180;28;19928;-84
2023/08/16 01:08:14;;;;;;;;;;;;;;;;;;5064315;28;19932;-85
2023/08/16 01:10:40;;;;;;;;;;;;;;;;;;5061946;28;20099;-85
2023/08/16 01:13:06;;;;;;;;;;;;;;;;;;5045960;28;19929;-85
2023/08/16 01:15:32;;;;;;;;;;;;;;;;;;5064279;28;19935;-85
2023/08/16 01:17:58;;;;;;;;;;;;;;;;;;5048139;28;19924;-85
2023/08/16 01:20:24;;;;;;;;;;;;;;;;;;5064389;28;19925;-85
2023/08/16 01:22:50;;;;;;;;;;;;;;;;;;5062958;28;19933;-85
2023/08/16 01:25:16;;;;;;;;;;;;;;;;;;5044137;28;20404;-85
2023/08/16 01:27:41;;;;;;;;;;;;;;;;;;5065220;28;20002;-85
2023/08/16 01:30:07;;;;;;;;;;;;;;;;;;5061689;28;19928;-86
2023/08/16 01:32:34;;;;;;;;;;;;;;;;;;5061922;28;19985;-86
2023/08/16 01:35:00;;;;;;;;;;;;;;;;;;5043574;28;19954;-85
2023/08/16 01:37:26;;;;;;;;;;;;;;;;;;5061753;28;19928;-85
2023/08/16 01:39:54;;;;;;;;;;;;;;;;;;5061024;28;20083;-85
2023/08/16 01:42:20;;;;;;;;;;;;;;;;;;5064804;28;20308;-85
2023/08/16 01:44:46;;;;;;;;;;;;;;;;;;5048234;28;19929;-85
2023/08/16 01:47:12;;;;;;;;;;;;;;;;;;5063561;28;19931;-85
2023/08/16 01:49:38;;;;;;;;;;;;;;;;;;5061943;28;19975;-85
2023/08/16 01:52:04;;;;;;;;;;;;;;;;;;5061672;28;19929;-85
2023/08/16 01:54:30;;;;;;;;;;;;;;;;;;5072055;28;19969;-86
2023/08/16 01:56:56;;;;;;;;;;;;;;;;;;5047624;28;20015;-85
2023/08/16 01:59:22;;;;;;;;;;;;;;;;;;5063680;28;19934;-85
2023/08/16 02:01:48;;;;;;;;;;;;;;;;;;5061805;28;19935;-86
2023/08/16 02:04:14;;;;;;;;;;;;;;;;;;5062268;28;19933;-85
2023/08/16 02:06:40;;;;;;;;;;;;;;;;;;5061806;28;20070;-86
2023/08/16 02:09:05;;;;;;;;;;;;;;;;;;5067199;28;20495;-86
2023/08/16 02:11:31;;;;;;;;;;;;;;;;;;5051588;28;19935;-85
2023/08/16 02:13:57;;;;;;;;;;;;;;;;;;5067160;28;20004;-86
2023/08/16 02:16:24;;;;;;;;;;;;;;;;;;5067866;28;19975;-85
2023/08/16 02:18:50;;;;;;;;;;;;;;;;;;5068169;28;19925;-85
2023/08/16 02:21:16;;;;;;;;;;;;;;;;;;5068006;28;19924;-86
2023/08/16 02:23:42;;;;;;;;;;;;;;;;;;5063090;28;20019;-86
2023/08/16 02:26:08;;;;;;;;;;;;;;;;;;5068786;28;19980;-86
2023/08/16 02:28:33;;;;;;;;;;;;;;;;;;5052099;28;19942;-86
2023/08/16 02:30:59;;;;;;;;;;;;;;;;;;5067873;28;20448;-86
2023/08/16 02:33:25;;;;;;;;;;;;;;;;;;5067007;28;19925;-86
2023/08/16 02:35:51;;;;;;;;;;;;;;;;;;5051687;28;19934;-86
2023/08/16 02:38:18;;;;;;;;;;;;;;;;;;5050605;28;20572;-86
2023/08/16 02:40:44;;;;;;;;;;;;;;;;;;5050612;28;19936;-86
2023/08/16 02:43:09;;;;;;;;;;;;;;;;;;5066744;28;19932;-88
2023/08/16 02:45:35;;;;;;;;;;;;;;;;;;5050631;28;20377;-87
2023/08/16 02:48:01;;;;;;;;;;;;;;;;;;5067072;28;20384;-88
2023/08/16 02:50:27;;;;;;;;;;;;;;;;;;5050603;28;19924;-87
2023/08/16 02:52:56;;;;;;;;;;;;;;;;;;5066497;28;19928;-87
2023/08/16 02:55:22;;;;;;;;;;;;;;;;;;5067065;28;19924;-87
2023/08/16 02:57:48;;;;;;;;;;;;;;;;;;5050901;28;19928;-88
2023/08/16 03:00:14;;;;;;;;;;;;;;;;;;5050592;28;19928;-87
2023/08/16 03:02:40;;;;;;;;;;;;;;;;;;5067241;28;19978;-87
2023/08/16 03:05:06;;;;;;;;;;;;;;;;;;5067045;28;19928;-87
2023/08/16 03:07:32;;;;;;;;;;;;;;;;;;5049914;28;19943;-86
2023/08/16 03:09:58;;;;;;;;;;;;;;;;;;5050259;28;20400;-86
2023/08/16 03:12:23;;;;;;;;;;;;;;;;;;5050845;28;20095;-87
2023/08/16 03:14:49;;;;;;;;;;;;;;;;;;5066438;28;19928;-87
2023/08/16 03:17:15;;;;;;;;;;;;;;;;;;5054660;28;19931;-88
2023/08/16 03:19:41;;;;;;;;;;;;;;;;;;5052531;28;19935;-87
2023/08/16 03:22:07;;;;;;;;;;;;;;;;;;5054005;28;19929;-88
2023/08/16 03:24:33;;;;;;;;;;;;;;;;;;5053340;28;19936;-87
2023/08/16 03:26:59;;;;;;;;;;;;;;;;;;5068210;28;19939;-87
2023/08/16 03:29:25;;;;;;;;;;;;;;;;;;5051188;28;20284;-87
2023/08/16 03:31:54;;;;;;;;;;;;;;;;;;5066962;28;19928;-87
2023/08/16 03:34:20;;;;;;;;;;;;;;;;;;5067323;28;19924;-87
2023/08/16 03:36:46;;;;;;;;;;;;;;;;;;5049538;28;19931;-87
2023/08/16 03:39:12;;;;;;;;;;;;;;;;;;5060154;28;19944;-87
2023/08/16 03:41:38;;;;;;;;;;;;;;;;;;5057571;28;19924;-87
2023/08/16 03:44:06;;;;;;;;;;;;;;;;;;5066727;28;20331;-87
2023/08/16 03:46:31;;;;;;;;;;;;;;;;;;5066260;28;19973;-87
2023/08/16 03:48:57;;;;;;;;;;;;;;;;;;5050349;28;20027;-87
2023/08/16 03:51:23;;;;;;;;;;;;;;;;;;5066703;28;20015;-88
2023/08/16 03:53:49;;;;;;;;;;;;;;;;;;5065954;28;19934;-87
2023/08/16 03:56:15;;;;;;;;;;;;;;;;;;5064981;28;20027;-88
2023/08/16 03:58:41;;;;;;;;;;;;;;;;;;5067091;28;19928;-88
2023/08/16 04:01:07;;;;;;;;;;;;;;;;;;5049215;28;20276;-88
2023/08/16 04:03:33;;;;;;;;;;;;;;;;;;5052355;28;19952;-88
2023/08/16 04:05:59;;;;;;;;;;;;;;;;;;5049174;28;19924;-88
2023/08/16 04:08:25;;;;;;;;;;;;;;;;;;5048507;28;19928;-87
2023/08/16 04:10:51;;;;;;;;;;;;;;;;;;5065573;28;19928;-88
2023/08/16 04:13:17;;;;;;;;;;;;;;;;;;5065775;28;20093;-87
2023/08/16 04:15:43;;;;;;;;;;;;;;;;;;5065797;28;20014;-88
2023/08/16 04:18:08;;;;;;;;;;;;;;;;;;5049625;28;19928;-87
2023/08/16 04:20:34;;;;;;;;;;;;;;;;;;5065940;28;20403;-88
2023/08/16 04:23:00;;;;;;;;;;;;;;;;;;5066266;28;19929;-88
2023/08/16 04:25:26;;;;;;;;;;;;;;;;;;5064680;28;20062;-88
2023/08/16 04:27:58;;;;;;;;;;;;;;;;;;5049582;28;19928;-88
2023/08/16 04:30:24;;;;;;;;;;;;;;;;;;5065845;28;19952;-88
2023/08/16 04:32:50;;;;;;;;;;;;;;;;;;5065565;28;19928;-88
2023/08/16 04:35:16;;;;;;;;;;;;;;;;;;5049013;28;19929;-88
2023/08/16 04:37:42;;;;;;;;;;;;;;;;;;5064413;28;20005;-88
2023/08/16 04:40:08;;;;;;;;;;;;;;;;;;5047604;28;20894;-88
2023/08/16 04:42:35;;;;;;;;;;;;;;;;;;5065443;28;19924;-88
2023/08/16 04:45:01;;;;;;;;;;;;;;;;;;5041984;28;19932;-87
2023/08/16 04:47:27;;;;;;;;;;;;;;;;;;5058233;28;19925;-86
2023/08/16 04:49:53;;;;;;;;;;;;;;;;;;5065343;28;19932;-86
2023/08/16 04:52:18;;;;;;;;;;;;;;;;;;5065045;28;20384;-87
2023/08/16 04:54:44;;;;;;;;;;;;;;;;;;5064786;28;19936;-86
2023/08/16 04:57:11;;;;;;;;;;;;;;;;;;5062573;28;19929;-87
2023/08/16 04:59:37;;;;;;;;;;;;;;;;;;5049473;28;20158;-88
2023/08/16 05:02:03;;;;;;;;;;;;;;;;;;5064358;28;20186;-88
2023/08/16 05:04:29;;;;;;;;;;;;;;;;;;5048396;28;20030;-88
2023/08/16 05:06:55;;;;;;;;;;;;;;;;;;5063892;28;20542;-88
2023/08/16 05:09:21;;;;;;;;;;;;;;;;;;5064192;28;19928;-88
2023/08/16 05:11:46;;;;;;;;;;;;;;;;;;5066098;28;19954;-87
2023/08/16 05:14:12;;;;;;;;;;;;;;;;;;5065152;28;19932;-88
2023/08/16 05:16:38;;;;;;;;;;;;;;;;;;5063518;28;19924;-88
2023/08/16 05:19:04;;;;;;;;;;;;;;;;;;5049121;28;19933;-87
2023/08/16 05:21:30;;;;;;;;;;;;;;;;;;5080897;28;19928;-88
2023/08/16 05:23:56;;;;;;;;;;;;;;;;;;5064298;28;19929;-88
2023/08/16 05:26:22;;;;;;;;;;;;;;;;;;5048205;28;20173;-88
2023/08/16 05:28:48;;;;;;;;;;;;;;;;;;5048233;28;19928;-87
2023/08/16 05:31:15;;;;;;;;;;;;;;;;;;5065205;28;19967;-88
2023/08/16 05:33:41;;;;;;;;;;;;;;;;;;5063945;28;19924;-87
2023/08/16 05:36:07;;;;;;;;;;;;;;;;;;5048279;28;19958;-86
2023/08/16 05:38:33;;;;;;;;;;;;;;;;;;5063852;28;19975;-87
2023/08/16 05:40:58;;;;;;;;;;;;;;;;;;5065909;28;19928;-87
2023/08/16 05:43:24;;;;;;;;;;;;;;;;;;5052481;28;20012;-87
2023/08/16 05:45:50;;;;;;;;;;;;;;;;;;5052142;28;19928;-87
2023/08/16 05:48:16;;;;;;;;;;;;;;;;;;5067841;28;19974;-87
2023/08/16 05:50:42;;;;;;;;;;;;;;;;;;5068848;28;19978;-87
2023/08/16 05:53:09;;;;;;;;;;;;;;;;;;5068164;28;20007;-87
2023/08/16 05:55:34;;;;;;;;;;;;;;;;;;5068712;28;19925;-88
2023/08/16 05:58:01;;;;;;;;;;;;;;;;;;5052359;28;19929;-87
2023/08/16 06:00:26;;;;;;;;;;;;;;;;;;5069304;28;19998;-87
2023/08/16 06:02:52;;;;;;;;;;;;;;;;;;5068575;28;19929;-87
2023/08/16 06:05:18;;;;;;;;;;;;;;;;;;5067217;28;19936;-87
2023/08/16 06:07:44;;;;;;;;;;;;;;;;;;5050774;28;19932;-86
2023/08/16 06:10:10;;;;;;;;;;;;;;;;;;5068261;28;19928;-87
2023/08/16 06:12:36;;;;;;;;;;;;;;;;;;5068210;28;19932;-86
2023/08/16 06:15:02;;;;;;;;;;;;;;;;;;5051238;28;20428;-86
2023/08/16 06:17:28;;;;;;;;;;;;;;;;;;5051850;28;19974;-86
2023/08/16 06:19:54;;;;;;;;;;;;;;;;;;5051413;28;19924;-86
2023/08/16 06:22:20;;;;;;;;;;;;;;;;;;5066108;28;20329;-86
2023/08/16 06:24:46;;;;;;;;;;;;;;;;;;5068674;28;20343;-86
2023/08/16 06:27:12;;;;;;;;;;;;;;;;;;5068463;28;19928;-85
2023/08/16 06:29:38;;;;;;;;;;;;;;;;;;5050934;28;19928;-86
2023/08/16 06:32:04;;;;;;;;;;;;;;;;;;5068310;28;20069;-86
2023/08/16 06:34:30;;;;;;;;;;;;;;;;;;5067215;28;19993;-86
2023/08/16 06:36:56;;;;;;;;;;;;;;;;;;5066979;28;19929;-86
2023/08/16 06:39:22;;;;;;;;;;;;;;;;;;5066903;28;20070;-84
2023/08/16 06:41:48;;;;;;;;;;;;;;;;;;5051340;28;20300;-86
2023/08/16 06:44:14;;;;;;;;;;;;;;;;;;5067966;28;19931;-85
2023/08/16 06:46:40;;;;;;;;;;;;;;;;;;5050608;28;19935;-85
2023/08/16 06:49:06;;;;;;;;;;;;;;;;;;5067898;28;19928;-86
2023/08/16 06:51:32;;;;;;;;;;;;;;;;;;5066535;28;20010;-86
2023/08/16 06:53:58;;;;;;;;;;;;;;;;;;5065716;28;19980;-85
2023/08/16 06:56:24;;;;;;;;;;;;;;;;;;5050689;28;19924;-86
2023/08/16 06:58:50;;;;;;;;;;;;;;;;;;5050961;28;20006;-85
2023/08/16 07:01:16;;;;;;;;;;;;;;;;;;5050867;28;19929;-85
2023/08/16 07:03:42;;;;;;;;;;;;;;;;;;5067496;28;19992;-85
2023/08/16 07:06:08;;;;;;;;;;;;;;;;;;5066877;28;19931;-85
2023/08/16 07:08:34;;;;;;;;;;;;;;;;;;5048893;28;19928;-85
2023/08/16 07:11:00;;;;;;;;;;;;;;;;;;5066928;28;19928;-85
2023/08/16 07:13:26;;;;;;;;;;;;;;;;;;5050340;28;19928;-85
2023/08/16 07:15:52;;;;;;;;;;;;;;;;;;5051377;28;20277;-85
2023/08/16 07:18:18;;;;;;;;;;;;;;;;;;5067176;28;19931;-85
2023/08/16 07:20:44;;;;;;;;;;;;;;;;;;5065657;28;19931;-84
2023/08/16 07:23:10;;;;;;;;;;;;;;;;;;5066410;28;20045;-85
2023/08/16 07:25:35;;;;;;;;;;;;;;;;;;5050035;28;19933;-85
2023/08/16 07:28:04;;;;;;;;;;;;;;;;;;5067699;28;19936;-85
2023/08/16 07:30:30;;;;;;;;;;;;;;;;;;5066394;28;19982;-85
2023/08/16 07:32:55;;;;;;;;;;;;;;;;;;5067367;28;19928;-84
2023/08/16 07:35:22;;;;;;;;;;;;;;;;;;5050070;28;19989;-84
2023/08/16 07:37:51;;;;;;;;;;;;;;;;;;5065387;28;19924;-84
2023/08/16 07:40:17;;;;;;;;;;;;;;;;;;5066540;28;19925;-85
2023/08/16 07:42:43;;;;;;;;;;;;;;;;;;5049027;28;19928;-85
2023/08/16 07:45:08;;;;;;;;;;;;;;;;;;5066784;28;19936;-84
2023/08/16 07:47:37;;;;;;;;;;;;;;;;;;5066812;28;20415;-85
2023/08/16 07:50:03;;;;;;;;;;;;;;;;;;5066344;28;19928;-84
2023/08/16 07:52:29;;;;;;;;;;;;;;;;;;5048981;28;19924;-84
2023/08/16 07:54:55;;;;;;;;;;;;;;;;;;5066228;28;20368;-85
2023/08/16 07:57:21;;;;;;;;;;;;;;;;;;5066052;28;19988;-84
2023/08/16 07:59:47;;;;;;;;;;;;;;;;;;5065963;28;19928;-85
2023/08/16 08:02:13;;;;;;;;;;;;;;;;;;5066841;28;20289;-84
2023/08/16 08:04:39;;;;;;;;;;;;;;;;;;5049282;28;19928;-84
2023/08/16 08:07:05;;;;;;;;;;;;;;;;;;5065267;28;19929;-86
2023/08/16 08:09:31;;;;;;;;;;;;;;;;;;5048590;28;19951;-85
2023/08/16 08:11:57;;;;;;;;;;;;;;;;;;5049631;28;20063;-85
2023/08/16 08:14:23;;;;;;;;;;;;;;;;;;5065261;28;20023;-84
2023/08/16 08:16:49;;;;;;;;;;;;;;;;;;5065868;28;19954;-84
2023/08/16 08:19:15;;;;;;;;;;;;;;;;;;5065723;28;19932;-84
2023/08/16 08:21:41;;;;;;;;;;;;;;;;;;5048993;28;20085;-84
2023/08/16 08:24:07;;;;;;;;;;;;;;;;;;5048112;28;20376;-83
2023/08/16 08:26:33;;;;;;;;;;;;;;;;;;5049547;28;20387;-84
2023/08/16 08:28:59;;;;;;;;;;;;;;;;;;5065631;28;19925;-85
2023/08/16 08:31:28;;;;;;;;;;;;;;;;;;5065906;28;19928;-84
2023/08/16 08:34:00;;;;;;;;;;;;;;;;;;5066299;28;20392;-85
2023/08/16 08:36:29;;;;;;;;;;;;;;;;;;5066731;28;20050;-84
2023/08/16 08:38:54;;;;;;;;;;;;;;;;;;5064640;28;19936;-84
2023/08/16 08:41:23;;;;;;;;;;;;;;;;;;5048769;28;20299;-84
2023/08/16 08:43:49;;;;;;;;;;;;;;;;;;5067246;28;20436;-85
2023/08/16 08:46:15;;;;;;;;;;;;;;;;;;5066340;28;19928;-84
2023/08/16 08:48:41;;;;;;;;;;;;;;;;;;5065218;28;19932;-85
2023/08/16 08:51:07;;;;;;;;;;;;;;;;;;5051611;28;20391;-84
2023/08/16 08:53:33;;;;;;;;;;;;;;;;;;5066360;28;19928;-85
2023/08/16 08:55:59;;;;;;;;;;;;;;;;;;5065648;28;20295;-84
2023/08/16 08:58:25;;;;;;;;;;;;;;;;;;5065176;28;19936;-84
2023/08/16 09:00:51;;;;;;;;;;;;;;;;;;5065371;28;19935;-85
2023/08/16 09:03:17;;;;;;;;;;;;;;;;;;5047903;28;20030;-84
2023/08/16 09:05:45;;;;;;;;;;;;;;;;;;5067603;28;19928;-84
2023/08/16 09:08:13;;;;;;;;;;;;;;;;;;5067854;28;20728;-84
2023/08/16 09:10:39;;;;;;;;;;;;;;;;;;5068805;28;19972;-84
2023/08/16 09:13:06;;;;;;;;;;;;;;;;;;5068846;28;19996;-84
2023/08/16 09:15:32;;;;;;;;;;;;;;;;;;5065967;28;19932;-85
2023/08/16 09:17:57;;;;;;;;;;;;;;;;;;5064526;28;20398;-85
2023/08/16 09:20:23;;;;;;;;;;;;;;;;;;5067227;28;19926;-85
2023/08/16 09:22:49;;;;;;;;;;;;;;;;;;5066211;28;19929;-85
2023/08/16 09:25:16;;;;;;;;;;;;;;;;;;5064617;28;19924;-84
2023/08/16 09:27:42;;;;;;;;;;;;;;;;;;5048498;28;19928;-85
2023/08/16 09:30:09;;;;;;;;;;;;;;;;;;5066082;28;19955;-85
2023/08/16 09:32:35;;;;;;;;;;;;;;;;;;5064237;28;19929;-86
2023/08/16 09:35:01;;;;;;;;;;;;;;;;;;5048162;28;20400;-85
2023/08/16 09:37:27;;;;;;;;;;;;;;;;;;5065601;28;19928;-84
2023/08/16 09:39:53;;;;;;;;;;;;;;;;;;5048147;28;19928;-84
2023/08/16 09:42:19;;;;;;;;;;;;;;;;;;5048248;28;20011;-83
2023/08/16 09:44:47;;;;;;;;;;;;;;;;;;5047960;28;20023;-84
2023/08/16 09:47:13;;;;;;;;;;;;;;;;;;5071167;28;20286;-85
2023/08/16 09:49:39;;;;;;;;;;;;;;;;;;5067131;28;20415;-86
2023/08/16 09:52:05;;;;;;;;;;;;;;;;;;5064469;28;19930;-84
2023/08/16 09:54:31;;;;;;;;;;;;;;;;;;5075701;28;19928;-84
2023/08/16 09:56:57;;;;;;;;;;;;;;;;;;5065058;28;19928;-83
2023/08/16 09:59:23;;;;;;;;;;;;;;;;;;5065230;28;19928;-86
2023/08/16 10:01:50;;;;;;;;;;;;;;;;;;5048040;28;19928;-84
2023/08/16 10:04:15;;;;;;;;;;;;;;;;;;5048975;28;19921;-84
2023/08/16 10:06:41;;;;;;;;;;;;;;;;;;5065309;28;20406;-84
2023/08/16 10:09:15;;;;;;;;;;;;;;;;;;5065629;28;19928;-83
2023/08/16 10:11:40;;;;;;;;;;;;;;;;;;5066249;28;20019;-84
2023/08/16 10:14:07;;;;;;;;;;;;;;;;;;5065261;28;20034;-84
2023/08/16 10:16:33;;;;;;;;;;;;;;;;;;5064136;28;19929;-83
2023/08/16 10:18:59;;;;;;;;;;;;;;;;;;5047548;28;19931;-83
2023/08/16 10:21:25;;;;;;;;;;;;;;;;;;5066139;28;19928;-83
2023/08/16 10:23:51;;;;;;;;;;;;;;;;;;5057611;28;19947;-83
2023/08/16 10:26:17;;;;;;;;;;;;;;;;;;5064001;28;20262;-84
2023/08/16 10:28:43;;;;;;;;;;;;;;;;;;5066481;28;19925;-84
2023/08/16 10:31:09;;;;;;;;;;;;;;;;;;5068739;28;20410;-84
2023/08/16 10:33:37;;;;;;;;;;;;;;;;;;5051457;28;19928;-84
2023/08/16 10:36:03;;;;;;;;;;;;;;;;;;5063787;28;19983;-83
2023/08/16 10:38:32;;;;;;;;;;;;;;;;;;5065118;28;19964;-83
2023/08/16 10:40:58;;;;;;;;;;;;;;;;;;5063638;28;20317;-84
2023/08/16 10:43:23;;;;;;;;;;;;;;;;;;5063064;28;19928;-84
2023/08/16 10:45:49;;;;;;;;;;;;;;;;;;5067782;28;20299;-84
2023/08/16 10:48:15;;;;;;;;;;;;;;;;;;5065498;28;19924;-84
2023/08/16 10:50:42;;;;;;;;;;;;;;;;;;5065133;28;20014;-84
2023/08/16 10:53:08;;;;;;;;;;;;;;;;;;5072552;28;20038;-83
2023/08/16 10:55:34;;;;;;;;;;;;;;;;;;5066599;28;19943;-85
2023/08/16 10:58:00;;;;;;;;;;;;;;;;;;5067731;28;19929;-85
2023/08/16 11:00:26;;;;;;;;;;;;;;;;;;5048558;28;19931;-84
2023/08/16 11:02:52;;;;;;;;;;;;;;;;;;5067382;28;19935;-83
2023/08/16 11:05:19;;;;;;;;;;;;;;;;;;5069058;28;20273;-83
2023/08/16 11:07:45;;;;;;;;;;;;;;;;;;5065922;28;19933;-83
2023/08/16 11:10:10;;;;;;;;;;;;;;;;;;5066727;28;19936;-84
2023/08/16 11:12:36;;;;;;;;;;;;;;;;;;5066575;28;19932;-83
2023/08/16 11:15:03;;;;;;;;;;;;;;;;;;5065930;28;19928;-83
2023/08/16 11:17:29;;;;;;;;;;;;;;;;;;5065222;28;19939;-84
2023/08/16 11:19:55;;;;;;;;;;;;;;;;;;5067311;28;20427;-83
2023/08/16 11:22:22;;;;;;;;;;;;;;;;;;5065586;28;19932;-84
2023/08/16 11:24:48;;;;;;;;;;;;;;;;;;5064464;28;19997;-84
2023/08/16 11:27:15;;;;;;;;;;;;;;;;;;5068846;28;20376;-84
2023/08/16 11:29:41;;;;;;;;;;;;;;;;;;5066757;28;19928;-85
2023/08/16 11:32:07;;;;;;;;;;;;;;;;;;5066043;28;20058;-84
2023/08/16 11:34:33;;;;;;;;;;;;;;;;;;5066773;28;19948;-85
2023/08/16 11:36:59;;;;;;;;;;;;;;;;;;5064179;28;19929;-83
2023/08/16 11:39:27;;;;;;;;;;;;;;;;;;5064175;28;19929;-82
2023/08/16 11:41:53;;;;;;;;;;;;;;;;;;5047292;28;20023;-84
2023/08/16 11:44:19;;;;;;;;;;;;;;;;;;5064958;28;20382;-83
2023/08/16 11:46:45;;;;;;;;;;;;;;;;;;5065540;28;19984;-84
2023/08/16 11:49:12;;;;;;;;;;;;;;;;;;5048984;28;19925;-83
2023/08/16 11:51:41;;;;;;;;;;;;;;;;;;5065164;28;20231;-84
2023/08/16 11:54:08;;;;;;;;;;;;;;;;;;5064638;28;20351;-84
2023/08/16 11:56:34;;;;;;;;;;;;;;;;;;5047196;28;19932;-83
2023/08/16 11:59:00;;;;;;;;;;;;;;;;;;5066855;28;19976;-84
2023/08/16 12:01:27;;;;;;;;;;;;;;;;;;5064132;28;19967;-83
2023/08/16 12:03:53;;;;;;;;;;;;;;;;;;5063238;28;20031;-84
2023/08/16 12:06:21;;;;;;;;;;;;;;;;;;5064552;28;20015;-83
2023/08/16 12:08:47;;;;;;;;;;;;;;;;;;5065580;28;19928;-84
2023/08/16 12:11:12;;;;;;;;;;;;;;;;;;5066315;28;19936;-84
2023/08/16 12:13:38;;;;;;;;;;;;;;;;;;5061230;28;20452;-84
2023/08/16 12:16:04;;;;;;;;;;;;;;;;;;5064590;28;19935;-83
2023/08/16 12:18:30;;;;;;;;;;;;;;;;;;5066932;28;20679;-84
2023/08/16 12:20:56;;;;;;;;;;;;;;;;;;5067441;28;20311;-84
2023/08/16 12:23:22;;;;;;;;;;;;;;;;;;5063412;28;19936;-83
2023/08/16 12:25:48;;;;;;;;;;;;;;;;;;5063578;28;20960;-84
2023/08/16 12:28:14;;;;;;;;;;;;;;;;;;5058538;28;20452;-83
2023/08/16 12:30:40;;;;;;;;;;;;;;;;;;5062638;28;19952;-83
2023/08/16 12:33:09;;;;;;;;;;;;;;;;;;5046984;28;20288;-84
2023/08/16 12:35:36;;;;;;;;;;;;;;;;;;5047065;28;19976;-83
2023/08/16 12:38:03;;;;;;;;;;;;;;;;;;5062600;28;19928;-84
2023/08/16 12:40:29;;;;;;;;;;;;;;;;;;5064213;28;19929;-84
2023/08/16 12:42:55;;;;;;;;;;;;;;;;;;5065982;28;20300;-83
2023/08/16 12:45:21;;;;;;;;;;;;;;;;;;5063528;28;19932;-83
2023/08/16 12:47:47;;;;;;;;;;;;;;;;;;5063002;28;19935;-84
2023/08/16 12:50:13;;;;;;;;;;;;;;;;;;5064710;28;19928;-84
2023/08/16 12:52:39;;;;;;;;;;;;;;;;;;5045343;28;19935;-84
2023/08/16 12:55:05;;;;;;;;;;;;;;;;;;5062758;28;20398;-83
2023/08/16 12:57:31;;;;;;;;;;;;;;;;;;5045859;28;19929;-83
2023/08/16 12:59:57;;;;;;;;;;;;;;;;;;5062799;28;20161;-82
2023/08/16 13:02:24;;;;;;;;;;;;;;;;;;5046995;28;19928;-82
2023/08/16 13:04:49;;;;;;;;;;;;;;;;;;5064767;28;19950;-82
2023/08/16 13:07:15;;;;;;;;;;;;;;;;;;5064345;28;19985;-81
2023/08/16 13:09:41;;;;;;;;;;;;;;;;;;5062026;28;19935;-83
2023/08/16 13:12:07;;;;;;;;;;;;;;;;;;5046322;28;19939;-82
2023/08/16 13:14:36;;;;;;;;;;;;;;;;;;5064086;28;19928;-82
2023/08/16 13:17:02;;;;;;;;;;;;;;;;;;5062836;28;20011;-81
2023/08/16 13:19:28;;;;;;;;;;;;;;;;;;5063794;28;19928;-82
2023/08/16 13:21:55;;;;;;;;;;;;;;;;;;5045242;28;20333;-83
2023/08/16 13:24:21;;;;;;;;;;;;;;;;;;5062857;28;20292;-83
2023/08/16 13:26:47;;;;;;;;;;;;;;;;;;5066100;28;19938;-81
2023/08/16 13:29:15;;;;;;;;;;;;;;;;;;5048636;28;19924;-82
2023/08/16 13:31:40;;;;;;;;;;;;;;;;;;5063463;28;19928;-81
2023/08/16 13:34:06;;;;;;;;;;;;;;;;;;5062034;28;20685;-81
2023/08/16 13:36:35;;;;;;;;;;;;;;;;;;5062399;28;19932;-84
2023/08/16 13:39:01;;;;;;;;;;;;;;;;;;5060754;28;19932;-84
2023/08/16 13:41:27;;;;;;;;;;;;;;;;;;5063213;28;19928;-86
2023/08/16 13:43:53;;;;;;;;;;;;;;;;;;5063444;28;19928;-84
2023/08/16 13:46:19;;;;;;;;;;;;;;;;;;5062567;28;20392;-84
2023/08/16 13:48:44;;;;;;;;;;;;;;;;;;5063356;28;19928;-84
2023/08/16 13:51:14;;;;;;;;;;;;;;;;;;5065039;28;19924;-85
2023/08/16 13:53:39;;;;;;;;;;;;;;;;;;5063697;28;19929;-84
2023/08/16 13:56:06;;;;;;;;;;;;;;;;;;5065718;28;19932;-84
2023/08/16 13:58:31;;;;;;;;;;;;;;;;;;5049006;28;19928;-84
2023/08/16 14:00:57;;;;;;;;;;;;;;;;;;5065598;28;20338;-84
2023/08/16 14:03:24;;;;;;;;;;;;;;;;;;5066333;28;20382;-84
2023/08/16 14:05:50;;;;;;;;;;;;;;;;;;5053138;28;20122;-84
2023/08/16 14:08:16;;;;;;;;;;;;;;;;;;5065698;28;20191;-83
2023/08/16 14:10:41;;;;;;;;;;;;;;;;;;5064208;28;19975;-83
2023/08/16 14:13:12;;;;;;;;;;;;;;;;;;5064917;28;20407;-84
2023/08/16 14:15:38;;;;;;;;;;;;;;;;;;5060558;28;20329;-84
2023/08/16 14:18:04;;;;;;;;;;;;;;;;;;5069064;28;20022;-84
2023/08/16 14:20:30;;;;;;;;;;;;;;;;;;5065731;28;20031;-83
2023/08/16 14:22:56;;;;;;;;;;;;;;;;;;5065229;28;20026;-84
2023/08/16 14:25:21;;;;;;;;;;;;;;;;;;5050441;28;20291;-84
2023/08/16 14:27:47;;;;;;;;;;;;;;;;;;5066368;28;19982;-83
2023/08/16 14:30:13;;;;;;;;;;;;;;;;;;5065999;28;19925;-84
2023/08/16 14:32:39;;;;;;;;;;;;;;;;;;5056628;28;19928;-84
2023/08/16 14:35:05;;;;;;;;;;;;;;;;;;5070297;28;20447;-84
2023/08/16 14:37:31;;;;;;;;;;;;;;;;;;5049096;28;20368;-84
2023/08/16 14:39:57;;;;;;;;;;;;;;;;;;5067528;28;19928;-84
2023/08/16 14:42:23;;;;;;;;;;;;;;;;;;5068195;28;20316;-84
2023/08/16 14:44:55;;;;;;;;;;;;;;;;;;5052145;28;19928;-83
2023/08/16 14:47:21;;;;;;;;;;;;;;;;;;5051019;28;19937;-84
2023/08/16 14:49:50;;;;;;;;;;;;;;;;;;5067642;28;19928;-84
2023/08/16 14:52:16;;;;;;;;;;;;;;;;;;5068034;28;19958;-84
2023/08/16 14:54:42;;;;;;;;;;;;;;;;;;5071146;28;19994;-84
2023/08/16 14:57:08;;;;;;;;;;;;;;;;;;5053641;28;20019;-84
2023/08/16 14:59:33;;;;;;;;;;;;;;;;;;5051382;28;19928;-84
2023/08/16 15:01:59;;;;;;;;;;;;;;;;;;5067913;28;19928;-83
2023/08/16 15:04:25;;;;;;;;;;;;;;;;;;5066684;28;19928;-85
2023/08/16 15:06:51;;;;;;;;;;;;;;;;;;5066592;28;20445;-85
2023/08/16 15:09:17;;;;;;;;;;;;;;;;;;5066763;28;20294;-84
2023/08/16 15:11:43;;;;;;;;;;;;;;;;;;5066033;28;20046;-85
2023/08/16 15:14:10;;;;;;;;;;;;;;;;;;5064312;28;20023;-84
2023/08/16 15:16:36;;;;;;;;;;;;;;;;;;5067293;28;20021;-84
2023/08/16 15:19:03;;;;;;;;;;;;;;;;;;5064472;28;19924;-85
2023/08/16 15:21:29;;;;;;;;;;;;;;;;;;5053001;28;20167;-84
2023/08/16 15:23:58;;;;;;;;;;;;;;;;;;5047611;28;19967;-85
2023/08/16 15:26:24;;;;;;;;;;;;;;;;;;5064509;28;19928;-84
2023/08/16 15:28:50;;;;;;;;;;;;;;;;;;5064599;28;19934;-85
2023/08/16 15:31:16;;;;;;;;;;;;;;;;;;5047197;28;19924;-84
2023/08/16 15:33:42;;;;;;;;;;;;;;;;;;5047975;28;20053;-84
2023/08/16 15:36:08;;;;;;;;;;;;;;;;;;5066064;28;19929;-85
2023/08/16 15:38:37;;;;;;;;;;;;;;;;;;5066953;28;19928;-82
2023/08/16 15:41:03;;;;;;;;;;;;;;;;;;5048179;28;20373;-82
2023/08/16 15:43:29;;;;;;;;;;;;;;;;;;5067160;28;19939;-82
2023/08/16 15:45:54;;;;;;;;;;;;;;;;;;5066398;28;19928;-83
2023/08/16 15:48:20;;;;;;;;;;;;;;;;;;5070190;28;19924;-85
2023/08/16 15:50:46;;;;;;;;;;;;;;;;;;5067273;28;19924;-84
2023/08/16 15:53:12;;;;;;;;;;;;;;;;;;5063864;28;19935;-84
2023/08/16 15:55:41;;;;;;;;;;;;;;;;;;5063176;28;19931;-84
2023/08/16 15:58:07;;;;;;;;;;;;;;;;;;5034306;28;20388;-84
2023/08/16 16:00:32;;;;;;;;;;;;;;;;;;5061190;28;19935;-84
2023/08/16 16:02:58;;;;;;;;;;;;;;;;;;5063891;28;19924;-85
2023/08/16 16:05:24;;;;;;;;;;;;;;;;;;5057460;28;19975;-85
2023/08/16 16:07:50;;;;;;;;;;;;;;;;;;5066778;28;19960;-85
2023/08/16 16:10:16;;;;;;;;;;;;;;;;;;5066248;28;20643;-85
2023/08/16 16:12:42;;;;;;;;;;;;;;;;;;5063506;28;19935;-82
2023/08/16 16:15:08;;;;;;;;;;;;;;;;;;5064432;28;19935;-83
2023/08/16 16:17:34;;;;;;;;;;;;;;;;;;5051931;28;20296;-82
2023/08/16 16:20:00;;;;;;;;;;;;;;;;;;5063163;28;20106;-83
2023/08/16 16:22:26;;;;;;;;;;;;;;;;;;5062868;28;19924;-82
2023/08/16 16:24:52;;;;;;;;;;;;;;;;;;5063070;28;19935;-84
2023/08/16 16:27:18;;;;;;;;;;;;;;;;;;5063889;28;20399;-85
2023/08/16 16:29:44;;;;;;;;;;;;;;;;;;5047361;28;19989;-84
2023/08/16 16:32:10;;;;;;;;;;;;;;;;;;5065375;28;20025;-84
2023/08/16 16:34:36;;;;;;;;;;;;;;;;;;5064651;28;20279;-84
2023/08/16 16:37:02;;;;;;;;;;;;;;;;;;5046531;28;19928;-84